sensor_id;sensor_type;location;lat;lon;timestamp;temperature;humidity
32769;DHT22;23049;54.304;8.826;2023-07-13T00:01:04;18.10;99.90
32769;DHT22;23049;54.304;8.826;2023-07-13T00:03:31;18.10;99.90
32769;DHT22;23049;54.304;8.826;2023-07-13T00:06:00;18.20;99.90
32769;DHT22;23049;54.304;8.826;2023-07-13T00:08:26;18.30;99.90
32769;DHT22;23049;54.304;8.826;2023-07-13T00:10:52;18.40;99.90
32769;DHT22;23049;54.304;8.826;2023-07-13T00:13:21;18.40;99.90
32769;DHT22;23049;54.304;8.826;2023-07-13T00:15:46;18.40;99.90
32769;DHT22;23049;54.304;8.826;2023-07-13T00:18:12;18.30;99.90
32769;DHT22;23049;54.304;8.826;2023-07-13T00:20:37;18.20;99.90
32769;DHT22;23049;54.304;8.826;2023-07-13T00:23:03;18.20;99.90
32769;DHT22;23049;54.304;8.826;2023-07-13T00:25:28;18.10;99.90
32769;DHT22;23049;54.304;8.826;2023-07-13T00:27:54;18.00;99.90
32769;DHT22;23049;54.304;8.826;2023-07-13T00:30:20;18.00;99.90
32769;DHT22;23049;54.304;8.826;2023-07-13T00:32:46;18.00;99.90
32769;DHT22;23049;54.304;8.826;2023-07-13T00:35:13;17.90;99.90
32769;DHT22;23049;54.304;8.826;2023-07-13T00:37:39;17.90;99.90
32769;DHT22;23049;54.304;8.826;2023-07-13T00:40:05;17.90;99.90
32769;DHT22;23049;54.304;8.826;2023-07-13T00:47:35;17.80;99.90
32769;DHT22;23049;54.304;8.826;2023-07-13T00:50:01;17.70;99.90
32769;DHT22;23049;54.304;8.826;2023-07-13T00:52:28;17.70;99.90
32769;DHT22;23049;54.304;8.826;2023-07-13T00:54:54;17.70;99.90
32769;DHT22;23049;54.304;8.826;2023-07-13T00:57:20;17.70;99.90
32769;DHT22;23049;54.304;8.826;2023-07-13T00:59:47;17.70;99.90
32769;DHT22;23049;54.304;8.826;2023-07-13T01:02:13;17.70;99.90
32769;DHT22;23049;54.304;8.826;2023-07-13T01:04:39;17.80;99.90
32769;DHT22;23049;54.304;8.826;2023-07-13T01:07:05;17.80;99.90
32769;DHT22;23049;54.304;8.826;2023-07-13T01:09:31;17.80;99.90
32769;DHT22;23049;54.304;8.826;2023-07-13T01:11:57;17.80;99.90
32769;DHT22;23049;54.304;8.826;2023-07-13T01:16:41;17.80;99.90
32769;DHT22;23049;54.304;8.826;2023-07-13T01:19:12;17.80;99.90
32769;DHT22;23049;54.304;8.826;2023-07-13T01:21:40;17.80;99.90
32769;DHT22;23049;54.304;8.826;2023-07-13T01:24:08;17.80;99.90
32769;DHT22;23049;54.304;8.826;2023-07-13T01:26:34;17.80;99.90
32769;DHT22;23049;54.304;8.826;2023-07-13T01:28:59;17.80;99.90
32769;DHT22;23049;54.304;8.826;2023-07-13T01:31:25;17.80;99.90
32769;DHT22;23049;54.304;8.826;2023-07-13T01:33:51;17.80;99.90
32769;DHT22;23049;54.304;8.826;2023-07-13T01:36:16;17.80;99.90
32769;DHT22;23049;54.304;8.826;2023-07-13T01:38:42;17.60;99.90
32769;DHT22;23049;54.304;8.826;2023-07-13T01:41:07;17.60;99.90
32769;DHT22;23049;54.304;8.826;2023-07-13T01:43:33;17.70;99.90
32769;DHT22;23049;54.304;8.826;2023-07-13T01:45:58;17.70;99.90
32769;DHT22;23049;54.304;8.826;2023-07-13T01:48:24;17.80;99.90
32769;DHT22;23049;54.304;8.826;2023-07-13T01:50:50;17.90;99.90
32769;DHT22;23049;54.304;8.826;2023-07-13T01:53:15;17.90;99.90
32769;DHT22;23049;54.304;8.826;2023-07-13T01:55:41;18.00;99.90
32769;DHT22;23049;54.304;8.826;2023-07-13T01:58:06;18.00;99.90
32769;DHT22;23049;54.304;8.826;2023-07-13T02:00:32;18.00;99.90
32769;DHT22;23049;54.304;8.826;2023-07-13T02:02:58;18.10;99.90
32769;DHT22;23049;54.304;8.826;2023-07-13T02:05:23;18.00;99.90
32769;DHT22;23049;54.304;8.826;2023-07-13T02:07:49;18.10;99.90
32769;DHT22;23049;54.304;8.826;2023-07-13T02:10:15;18.00;99.90
32769;DHT22;23049;54.304;8.826;2023-07-13T02:15:05;18.20;99.90
32769;DHT22;23049;54.304;8.826;2023-07-13T02:17:31;18.10;99.90
32769;DHT22;23049;54.304;8.826;2023-07-13T02:19:57;18.00;99.90
32769;DHT22;23049;54.304;8.826;2023-07-13T02:22:23;17.90;99.90
32769;DHT22;23049;54.304;8.826;2023-07-13T02:24:48;17.90;99.90
32769;DHT22;23049;54.304;8.826;2023-07-13T02:27:14;17.90;99.90
32769;DHT22;23049;54.304;8.826;2023-07-13T02:29:39;17.80;99.90
32769;DHT22;23049;54.304;8.826;2023-07-13T02:32:05;17.80;99.90
32769;DHT22;23049;54.304;8.826;2023-07-13T02:34:31;17.90;99.90
32769;DHT22;23049;54.304;8.826;2023-07-13T02:36:56;17.80;99.90
32769;DHT22;23049;54.304;8.826;2023-07-13T02:39:22;17.80;99.90
32769;DHT22;23049;54.304;8.826;2023-07-13T02:41:47;17.80;99.90
32769;DHT22;23049;54.304;8.826;2023-07-13T02:44:13;17.80;99.90
32769;DHT22;23049;54.304;8.826;2023-07-13T02:46:39;17.70;99.90
32769;DHT22;23049;54.304;8.826;2023-07-13T02:49:05;17.70;99.90
32769;DHT22;23049;54.304;8.826;2023-07-13T02:51:30;17.80;99.90
32769;DHT22;23049;54.304;8.826;2023-07-13T02:53:56;17.90;99.90
32769;DHT22;23049;54.304;8.826;2023-07-13T02:56:22;18.00;99.90
32769;DHT22;23049;54.304;8.826;2023-07-13T02:58:48;18.00;99.90
32769;DHT22;23049;54.304;8.826;2023-07-13T03:01:14;18.00;99.90
32769;DHT22;23049;54.304;8.826;2023-07-13T03:03:46;18.00;99.90
32769;DHT22;23049;54.304;8.826;2023-07-13T03:06:13;18.10;99.90
32769;DHT22;23049;54.304;8.826;2023-07-13T03:08:39;18.00;99.90
32769;DHT22;23049;54.304;8.826;2023-07-13T03:11:06;18.00;99.90
32769;DHT22;23049;54.304;8.826;2023-07-13T03:13:32;18.00;99.90
32769;DHT22;23049;54.304;8.826;2023-07-13T03:15:57;18.00;99.90
32769;DHT22;23049;54.304;8.826;2023-07-13T03:18:23;18.00;99.90
32769;DHT22;23049;54.304;8.826;2023-07-13T03:20:51;18.10;99.90
32769;DHT22;23049;54.304;8.826;2023-07-13T03:23:18;18.10;99.90
32769;DHT22;23049;54.304;8.826;2023-07-13T03:25:44;18.10;99.90
32769;DHT22;23049;54.304;8.826;2023-07-13T03:28:10;18.10;99.90
32769;DHT22;23049;54.304;8.826;2023-07-13T03:30:36;18.10;99.90
32769;DHT22;23049;54.304;8.826;2023-07-13T03:33:01;18.10;99.90
32769;DHT22;23049;54.304;8.826;2023-07-13T03:37:58;18.10;99.90
32769;DHT22;23049;54.304;8.826;2023-07-13T03:40:25;18.20;99.90
32769;DHT22;23049;54.304;8.826;2023-07-13T03:42:51;18.10;99.90
32769;DHT22;23049;54.304;8.826;2023-07-13T03:45:17;18.10;99.90
32769;DHT22;23049;54.304;8.826;2023-07-13T03:47:42;18.10;99.90
32769;DHT22;23049;54.304;8.826;2023-07-13T03:50:08;18.00;99.90
32769;DHT22;23049;54.304;8.826;2023-07-13T03:52:33;17.10;99.90
32769;DHT22;23049;54.304;8.826;2023-07-13T03:54:59;16.70;99.90
32769;DHT22;23049;54.304;8.826;2023-07-13T03:57:25;16.40;99.90
32769;DHT22;23049;54.304;8.826;2023-07-13T03:59:50;16.20;99.90
32769;DHT22;23049;54.304;8.826;2023-07-13T04:02:16;16.00;99.90
32769;DHT22;23049;54.304;8.826;2023-07-13T04:04:41;16.00;99.90
32769;DHT22;23049;54.304;8.826;2023-07-13T04:07:07;16.00;99.90
32769;DHT22;23049;54.304;8.826;2023-07-13T04:09:33;15.90;99.90
32769;DHT22;23049;54.304;8.826;2023-07-13T04:11:59;15.80;99.90
32769;DHT22;23049;54.304;8.826;2023-07-13T04:14:24;15.70;99.90
32769;DHT22;23049;54.304;8.826;2023-07-13T04:16:50;15.70;99.90
32769;DHT22;23049;54.304;8.826;2023-07-13T04:19:15;15.70;99.90
32769;DHT22;23049;54.304;8.826;2023-07-13T04:21:41;15.70;99.90
32769;DHT22;23049;54.304;8.826;2023-07-13T04:24:07;15.70;99.90
32769;DHT22;23049;54.304;8.826;2023-07-13T04:26:33;15.70;99.90
32769;DHT22;23049;54.304;8.826;2023-07-13T04:29:01;15.80;99.90
32769;DHT22;23049;54.304;8.826;2023-07-13T04:31:28;15.80;99.90
32769;DHT22;23049;54.304;8.826;2023-07-13T04:36:08;16.00;99.90
32769;DHT22;23049;54.304;8.826;2023-07-13T04:38:35;16.00;99.90
32769;DHT22;23049;54.304;8.826;2023-07-13T04:41:02;16.10;99.90
32769;DHT22;23049;54.304;8.826;2023-07-13T04:43:28;16.20;99.90
32769;DHT22;23049;54.304;8.826;2023-07-13T04:45:54;16.30;99.90
32769;DHT22;23049;54.304;8.826;2023-07-13T04:48:20;16.50;99.90
32769;DHT22;23049;54.304;8.826;2023-07-13T04:50:46;16.70;99.90
32769;DHT22;23049;54.304;8.826;2023-07-13T04:53:12;16.80;99.90
32769;DHT22;23049;54.304;8.826;2023-07-13T04:55:37;16.90;99.90
32769;DHT22;23049;54.304;8.826;2023-07-13T04:58:03;17.00;99.90
32769;DHT22;23049;54.304;8.826;2023-07-13T05:00:30;17.10;99.90
32769;DHT22;23049;54.304;8.826;2023-07-13T05:02:56;17.20;99.90
32769;DHT22;23049;54.304;8.826;2023-07-13T05:05:22;17.30;99.90
32769;DHT22;23049;54.304;8.826;2023-07-13T05:07:48;17.40;99.90
32769;DHT22;23049;54.304;8.826;2023-07-13T05:10:14;17.50;99.90
32769;DHT22;23049;54.304;8.826;2023-07-13T05:12:39;17.60;99.90
32769;DHT22;23049;54.304;8.826;2023-07-13T05:15:05;17.70;99.90
32769;DHT22;23049;54.304;8.826;2023-07-13T05:17:31;17.70;99.90
32769;DHT22;23049;54.304;8.826;2023-07-13T05:19:56;17.80;99.90
32769;DHT22;23049;54.304;8.826;2023-07-13T05:22:22;17.80;99.90
32769;DHT22;23049;54.304;8.826;2023-07-13T05:24:47;17.80;99.90
32769;DHT22;23049;54.304;8.826;2023-07-13T05:27:13;17.80;99.90
32769;DHT22;23049;54.304;8.826;2023-07-13T05:29:38;17.90;99.90
32769;DHT22;23049;54.304;8.826;2023-07-13T05:32:04;17.90;99.90
32769;DHT22;23049;54.304;8.826;2023-07-13T05:34:30;17.80;99.90
32769;DHT22;23049;54.304;8.826;2023-07-13T05:36:55;17.60;99.90
32769;DHT22;23049;54.304;8.826;2023-07-13T05:39:21;17.60;99.90
32769;DHT22;23049;54.304;8.826;2023-07-13T05:44:11;17.50;99.90
32769;DHT22;23049;54.304;8.826;2023-07-13T05:46:36;17.50;99.90
32769;DHT22;23049;54.304;8.826;2023-07-13T05:49:02;17.50;99.90
32769;DHT22;23049;54.304;8.826;2023-07-13T05:51:28;17.70;99.90
32769;DHT22;23049;54.304;8.826;2023-07-13T05:53:54;17.80;99.90
32769;DHT22;23049;54.304;8.826;2023-07-13T05:56:19;17.90;99.90
32769;DHT22;23049;54.304;8.826;2023-07-13T05:58:47;17.80;99.90
32769;DHT22;23049;54.304;8.826;2023-07-13T06:01:13;17.90;99.90
32769;DHT22;23049;54.304;8.826;2023-07-13T06:03:39;17.80;99.90
32769;DHT22;23049;54.304;8.826;2023-07-13T06:06:05;17.70;99.90
32769;DHT22;23049;54.304;8.826;2023-07-13T06:08:31;17.70;99.90
32769;DHT22;23049;54.304;8.826;2023-07-13T06:11:07;17.70;99.90
32769;DHT22;23049;54.304;8.826;2023-07-13T06:13:32;17.80;99.90
32769;DHT22;23049;54.304;8.826;2023-07-13T06:15:59;17.90;99.90
32769;DHT22;23049;54.304;8.826;2023-07-13T06:18:24;17.80;99.90
32769;DHT22;23049;54.304;8.826;2023-07-13T06:20:50;17.80;99.90
32769;DHT22;23049;54.304;8.826;2023-07-13T06:23:15;17.70;99.90
32769;DHT22;23049;54.304;8.826;2023-07-13T06:25:41;17.70;99.90
32769;DHT22;23049;54.304;8.826;2023-07-13T06:28:06;17.70;99.90
32769;DHT22;23049;54.304;8.826;2023-07-13T06:30:32;17.80;99.90
32769;DHT22;23049;54.304;8.826;2023-07-13T06:32:57;17.50;99.90
32769;DHT22;23049;54.304;8.826;2023-07-13T06:35:23;17.40;99.90
32769;DHT22;23049;54.304;8.826;2023-07-13T06:37:48;17.30;99.90
32769;DHT22;23049;54.304;8.826;2023-07-13T06:40:14;17.30;99.90
32769;DHT22;23049;54.304;8.826;2023-07-13T06:42:39;17.50;99.90
32769;DHT22;23049;54.304;8.826;2023-07-13T06:45:05;17.60;99.90
32769;DHT22;23049;54.304;8.826;2023-07-13T06:47:30;17.80;99.90
32769;DHT22;23049;54.304;8.826;2023-07-13T06:49:56;18.00;99.90
32769;DHT22;23049;54.304;8.826;2023-07-13T06:52:21;18.10;99.90
32769;DHT22;23049;54.304;8.826;2023-07-13T06:54:47;18.00;99.90
32769;DHT22;23049;54.304;8.826;2023-07-13T06:57:12;17.80;99.90
32769;DHT22;23049;54.304;8.826;2023-07-13T06:59:38;17.50;99.90
32769;DHT22;23049;54.304;8.826;2023-07-13T07:02:03;17.70;99.90
32769;DHT22;23049;54.304;8.826;2023-07-13T07:04:29;17.90;99.90
32769;DHT22;23049;54.304;8.826;2023-07-13T07:06:55;18.30;99.90
32769;DHT22;23049;54.304;8.826;2023-07-13T07:09:20;18.70;99.90
32769;DHT22;23049;54.304;8.826;2023-07-13T07:11:46;18.90;99.90
32769;DHT22;23049;54.304;8.826;2023-07-13T07:14:11;18.70;99.90
32769;DHT22;23049;54.304;8.826;2023-07-13T07:16:37;18.60;99.90
32769;DHT22;23049;54.304;8.826;2023-07-13T07:19:02;18.50;99.90
32769;DHT22;23049;54.304;8.826;2023-07-13T07:21:28;18.30;99.90
32769;DHT22;23049;54.304;8.826;2023-07-13T07:23:53;18.20;99.90
32769;DHT22;23049;54.304;8.826;2023-07-13T07:26:19;18.30;99.90
32769;DHT22;23049;54.304;8.826;2023-07-13T07:28:44;18.60;99.90
32769;DHT22;23049;54.304;8.826;2023-07-13T07:31:10;18.90;99.90
32769;DHT22;23049;54.304;8.826;2023-07-13T07:33:36;19.10;99.90
32769;DHT22;23049;54.304;8.826;2023-07-13T07:36:02;19.00;99.90
32769;DHT22;23049;54.304;8.826;2023-07-13T07:38:30;18.90;99.90
32769;DHT22;23049;54.304;8.826;2023-07-13T07:40:57;18.90;99.90
32769;DHT22;23049;54.304;8.826;2023-07-13T07:43:23;18.80;99.90
32769;DHT22;23049;54.304;8.826;2023-07-13T07:45:49;18.80;99.90
32769;DHT22;23049;54.304;8.826;2023-07-13T07:48:14;18.70;99.90
32769;DHT22;23049;54.304;8.826;2023-07-13T07:50:40;18.70;99.90
32769;DHT22;23049;54.304;8.826;2023-07-13T07:53:06;18.70;99.90
32769;DHT22;23049;54.304;8.826;2023-07-13T07:55:33;18.70;99.90
32769;DHT22;23049;54.304;8.826;2023-07-13T07:58:00;18.80;99.90
32769;DHT22;23049;54.304;8.826;2023-07-13T08:00:25;18.80;99.90
32769;DHT22;23049;54.304;8.826;2023-07-13T08:02:52;18.90;99.90
32769;DHT22;23049;54.304;8.826;2023-07-13T08:05:18;19.10;99.90
32769;DHT22;23049;54.304;8.826;2023-07-13T08:07:43;19.40;99.90
32769;DHT22;23049;54.304;8.826;2023-07-13T08:10:09;19.30;99.90
32769;DHT22;23049;54.304;8.826;2023-07-13T08:12:39;19.20;99.90
32769;DHT22;23049;54.304;8.826;2023-07-13T08:15:05;19.20;99.90
32769;DHT22;23049;54.304;8.826;2023-07-13T08:17:32;19.00;99.90
32769;DHT22;23049;54.304;8.826;2023-07-13T08:19:57;18.90;99.90
32769;DHT22;23049;54.304;8.826;2023-07-13T08:24:48;18.70;99.90
32769;DHT22;23049;54.304;8.826;2023-07-13T08:27:20;18.60;99.90
32769;DHT22;23049;54.304;8.826;2023-07-13T08:29:47;18.60;99.90
32769;DHT22;23049;54.304;8.826;2023-07-13T08:32:12;18.70;99.90
32769;DHT22;23049;54.304;8.826;2023-07-13T08:34:39;18.70;99.90
32769;DHT22;23049;54.304;8.826;2023-07-13T08:37:05;18.70;99.90
32769;DHT22;23049;54.304;8.826;2023-07-13T08:39:31;18.70;99.90
32769;DHT22;23049;54.304;8.826;2023-07-13T08:44:20;18.80;99.90
32769;DHT22;23049;54.304;8.826;2023-07-13T08:46:48;18.70;99.90
32769;DHT22;23049;54.304;8.826;2023-07-13T08:49:15;18.60;99.90
32769;DHT22;23049;54.304;8.826;2023-07-13T08:56:52;18.20;99.90
32769;DHT22;23049;54.304;8.826;2023-07-13T09:04:25;19.20;99.90
32769;DHT22;23049;54.304;8.826;2023-07-13T09:06:59;19.30;99.90
32769;DHT22;23049;54.304;8.826;2023-07-13T09:16:54;19.50;99.90
32769;DHT22;23049;54.304;8.826;2023-07-13T09:19:24;19.50;99.90
32769;DHT22;23049;54.304;8.826;2023-07-13T09:24:28;19.70;99.90
32769;DHT22;23049;54.304;8.826;2023-07-13T09:26:55;19.70;99.90
32769;DHT22;23049;54.304;8.826;2023-07-13T09:29:28;19.70;99.90
32769;DHT22;23049;54.304;8.826;2023-07-13T09:31:55;19.40;99.90
32769;DHT22;23049;54.304;8.826;2023-07-13T09:34:23;19.60;99.90
32769;DHT22;23049;54.304;8.826;2023-07-13T09:36:49;19.60;99.90
32769;DHT22;23049;54.304;8.826;2023-07-13T09:39:19;19.70;99.90
32769;DHT22;23049;54.304;8.826;2023-07-13T09:41:54;19.60;99.90
32769;DHT22;23049;54.304;8.826;2023-07-13T09:46:56;19.80;99.90
32769;DHT22;23049;54.304;8.826;2023-07-13T09:49:29;19.90;99.90
32769;DHT22;23049;54.304;8.826;2023-07-13T09:52:03;19.90;99.90
32769;DHT22;23049;54.304;8.826;2023-07-13T09:54:29;19.80;99.90
32769;DHT22;23049;54.304;8.826;2023-07-13T09:56:57;19.70;99.90
32769;DHT22;23049;54.304;8.826;2023-07-13T09:59:26;19.90;99.90
32769;DHT22;23049;54.304;8.826;2023-07-13T10:01:52;19.90;99.90
32769;DHT22;23049;54.304;8.826;2023-07-13T10:04:18;19.70;99.90
32769;DHT22;23049;54.304;8.826;2023-07-13T10:06:45;19.90;99.90
32769;DHT22;23049;54.304;8.826;2023-07-13T10:09:15;20.10;99.90
32769;DHT22;23049;54.304;8.826;2023-07-13T10:11:40;20.20;99.90
32769;DHT22;23049;54.304;8.826;2023-07-13T10:14:14;20.20;99.90
32769;DHT22;23049;54.304;8.826;2023-07-13T10:16:41;20.30;99.90
32769;DHT22;23049;54.304;8.826;2023-07-13T10:19:12;20.30;99.90
32769;DHT22;23049;54.304;8.826;2023-07-13T10:24:21;20.20;99.90
32769;DHT22;23049;54.304;8.826;2023-07-13T10:29:36;19.90;99.90
32769;DHT22;23049;54.304;8.826;2023-07-13T10:32:07;20.20;99.90
32769;DHT22;23049;54.304;8.826;2023-07-13T10:34:34;20.30;99.90
32769;DHT22;23049;54.304;8.826;2023-07-13T10:37:00;20.50;99.90
32769;DHT22;23049;54.304;8.826;2023-07-13T10:39:27;20.40;99.90
32769;DHT22;23049;54.304;8.826;2023-07-13T10:44:29;20.40;99.90
32769;DHT22;23049;54.304;8.826;2023-07-13T10:46:56;20.70;99.90
32769;DHT22;23049;54.304;8.826;2023-07-13T10:49:22;20.70;99.90
32769;DHT22;23049;54.304;8.826;2023-07-13T10:54:51;20.60;99.90
32769;DHT22;23049;54.304;8.826;2023-07-13T10:59:43;20.70;99.90
32769;DHT22;23049;54.304;8.826;2023-07-13T11:02:13;20.70;99.90
32769;DHT22;23049;54.304;8.826;2023-07-13T11:04:44;20.70;99.90
32769;DHT22;23049;54.304;8.826;2023-07-13T11:07:21;20.80;99.90
32769;DHT22;23049;54.304;8.826;2023-07-13T11:09:51;20.90;99.90
32769;DHT22;23049;54.304;8.826;2023-07-13T11:12:59;21.00;99.90
32769;DHT22;23049;54.304;8.826;2023-07-13T11:15:10;21.00;99.90
32769;DHT22;23049;54.304;8.826;2023-07-13T11:17:37;20.80;99.90
32769;DHT22;23049;54.304;8.826;2023-07-13T11:22:41;20.90;99.90
32769;DHT22;23049;54.304;8.826;2023-07-13T11:25:25;20.90;99.90
32769;DHT22;23049;54.304;8.826;2023-07-13T11:33:13;21.00;99.90
32769;DHT22;23049;54.304;8.826;2023-07-13T11:36:00;21.00;99.90
32769;DHT22;23049;54.304;8.826;2023-07-13T11:38:30;21.00;99.90
32769;DHT22;23049;54.304;8.826;2023-07-13T11:40:58;20.50;99.90
32769;DHT22;23049;54.304;8.826;2023-07-13T11:43:24;20.80;99.90
32769;DHT22;23049;54.304;8.826;2023-07-13T11:45:51;20.80;99.90
32769;DHT22;23049;54.304;8.826;2023-07-13T11:48:24;20.90;99.90
32769;DHT22;23049;54.304;8.826;2023-07-13T11:51:00;20.60;99.90
32769;DHT22;23049;54.304;8.826;2023-07-13T11:53:28;20.20;99.90
32769;DHT22;23049;54.304;8.826;2023-07-13T11:55:54;19.90;99.90
32769;DHT22;23049;54.304;8.826;2023-07-13T11:58:21;20.20;99.90
32769;DHT22;23049;54.304;8.826;2023-07-13T12:00:49;20.00;99.90
32769;DHT22;23049;54.304;8.826;2023-07-13T12:03:16;20.20;99.90
32769;DHT22;23049;54.304;8.826;2023-07-13T12:05:57;20.70;99.90
32769;DHT22;23049;54.304;8.826;2023-07-13T12:11:03;21.00;99.90
32769;DHT22;23049;54.304;8.826;2023-07-13T12:15:50;21.30;99.90
32769;DHT22;23049;54.304;8.826;2023-07-13T12:18:21;21.20;99.90
32769;DHT22;23049;54.304;8.826;2023-07-13T12:20:47;20.60;99.90
32769;DHT22;23049;54.304;8.826;2023-07-13T12:23:29;20.20;99.90
32769;DHT22;23049;54.304;8.826;2023-07-13T12:29:21;20.70;99.90
32769;DHT22;23049;54.304;8.826;2023-07-13T12:35:15;20.20;99.90
32769;DHT22;23049;54.304;8.826;2023-07-13T12:37:42;20.00;99.90
32769;DHT22;23049;54.304;8.826;2023-07-13T12:40:17;19.80;99.90
32769;DHT22;23049;54.304;8.826;2023-07-13T12:42:48;19.80;99.90
32769;DHT22;23049;54.304;8.826;2023-07-13T12:45:25;19.70;99.90
32769;DHT22;23049;54.304;8.826;2023-07-13T12:47:55;19.70;99.90
32769;DHT22;23049;54.304;8.826;2023-07-13T12:50:23;20.10;99.90
32769;DHT22;23049;54.304;8.826;2023-07-13T12:52:52;20.40;99.90
32769;DHT22;23049;54.304;8.826;2023-07-13T12:55:19;20.30;99.90
32769;DHT22;23049;54.304;8.826;2023-07-13T13:00:35;20.40;99.90
32769;DHT22;23049;54.304;8.826;2023-07-13T13:03:04;20.70;99.90
32769;DHT22;23049;54.304;8.826;2023-07-13T13:05:30;20.70;99.90
32769;DHT22;23049;54.304;8.826;2023-07-13T13:07:57;20.50;99.90
32769;DHT22;23049;54.304;8.826;2023-07-13T13:10:23;20.30;99.90
32769;DHT22;23049;54.304;8.826;2023-07-13T13:12:49;20.20;99.90
32769;DHT22;23049;54.304;8.826;2023-07-13T13:15:15;20.00;99.90
32769;DHT22;23049;54.304;8.826;2023-07-13T13:17:41;20.10;99.90
32769;DHT22;23049;54.304;8.826;2023-07-13T13:20:17;20.30;99.90
32769;DHT22;23049;54.304;8.826;2023-07-13T13:22:42;20.60;99.90
32769;DHT22;23049;54.304;8.826;2023-07-13T13:25:09;20.50;99.90
32769;DHT22;23049;54.304;8.826;2023-07-13T13:27:35;20.50;99.90
32769;DHT22;23049;54.304;8.826;2023-07-13T13:30:01;20.30;99.90
32769;DHT22;23049;54.304;8.826;2023-07-13T13:32:27;20.50;99.90
32769;DHT22;23049;54.304;8.826;2023-07-13T13:34:53;20.80;99.90
32769;DHT22;23049;54.304;8.826;2023-07-13T13:37:20;20.80;99.90
32769;DHT22;23049;54.304;8.826;2023-07-13T13:39:46;20.70;99.90
32769;DHT22;23049;54.304;8.826;2023-07-13T13:42:12;20.80;99.90
32769;DHT22;23049;54.304;8.826;2023-07-13T13:44:38;21.00;99.90
32769;DHT22;23049;54.304;8.826;2023-07-13T13:47:22;21.10;99.90
32769;DHT22;23049;54.304;8.826;2023-07-13T13:49:51;20.90;99.90
32769;DHT22;23049;54.304;8.826;2023-07-13T13:52:17;20.80;99.90
32769;DHT22;23049;54.304;8.826;2023-07-13T13:54:43;20.60;99.90
32769;DHT22;23049;54.304;8.826;2023-07-13T13:57:10;20.50;99.90
32769;DHT22;23049;54.304;8.826;2023-07-13T13:59:38;20.30;99.90
32769;DHT22;23049;54.304;8.826;2023-07-13T14:02:24;20.30;99.90
32769;DHT22;23049;54.304;8.826;2023-07-13T14:04:52;20.40;99.90
32769;DHT22;23049;54.304;8.826;2023-07-13T14:07:19;20.70;99.90
32769;DHT22;23049;54.304;8.826;2023-07-13T14:09:45;21.00;99.90
32769;DHT22;23049;54.304;8.826;2023-07-13T14:12:10;21.00;99.90
32769;DHT22;23049;54.304;8.826;2023-07-13T14:14:37;21.00;99.90
32769;DHT22;23049;54.304;8.826;2023-07-13T14:17:03;20.90;99.90
32769;DHT22;23049;54.304;8.826;2023-07-13T14:19:29;20.60;99.90
32769;DHT22;23049;54.304;8.826;2023-07-13T14:24:12;20.60;99.90
32769;DHT22;23049;54.304;8.826;2023-07-13T14:26:38;20.50;99.90
32769;DHT22;23049;54.304;8.826;2023-07-13T14:29:05;20.60;99.90
32769;DHT22;23049;54.304;8.826;2023-07-13T14:31:30;20.70;99.90
32769;DHT22;23049;54.304;8.826;2023-07-13T14:33:56;20.70;99.90
32769;DHT22;23049;54.304;8.826;2023-07-13T14:36:27;20.80;99.90
32769;DHT22;23049;54.304;8.826;2023-07-13T14:38:53;20.90;99.90
32769;DHT22;23049;54.304;8.826;2023-07-13T14:41:19;20.80;99.90
32769;DHT22;23049;54.304;8.826;2023-07-13T14:43:45;20.70;99.90
32769;DHT22;23049;54.304;8.826;2023-07-13T14:46:17;20.50;99.90
32769;DHT22;23049;54.304;8.826;2023-07-13T14:48:43;20.60;99.90
32769;DHT22;23049;54.304;8.826;2023-07-13T14:51:09;20.50;99.90
32769;DHT22;23049;54.304;8.826;2023-07-13T14:53:35;20.70;99.90
32769;DHT22;23049;54.304;8.826;2023-07-13T14:56:08;20.90;99.90
32769;DHT22;23049;54.304;8.826;2023-07-13T14:58:35;20.90;99.90
32769;DHT22;23049;54.304;8.826;2023-07-13T15:01:00;20.90;99.90
32769;DHT22;23049;54.304;8.826;2023-07-13T15:03:26;20.90;99.90
32769;DHT22;23049;54.304;8.826;2023-07-13T15:05:52;20.80;99.90
32769;DHT22;23049;54.304;8.826;2023-07-13T15:08:18;20.70;99.90
32769;DHT22;23049;54.304;8.826;2023-07-13T15:10:44;20.50;99.90
32769;DHT22;23049;54.304;8.826;2023-07-13T15:13:17;20.40;99.90
32769;DHT22;23049;54.304;8.826;2023-07-13T15:15:49;20.70;99.90
32769;DHT22;23049;54.304;8.826;2023-07-13T15:18:16;20.60;99.90
32769;DHT22;23049;54.304;8.826;2023-07-13T15:20:43;20.60;99.90
32769;DHT22;23049;54.304;8.826;2023-07-13T15:23:11;20.60;99.90
32769;DHT22;23049;54.304;8.826;2023-07-13T15:25:36;20.50;99.90
32769;DHT22;23049;54.304;8.826;2023-07-13T15:28:03;20.50;99.90
32769;DHT22;23049;54.304;8.826;2023-07-13T15:30:29;20.60;99.90
32769;DHT22;23049;54.304;8.826;2023-07-13T15:32:56;20.60;99.90
32769;DHT22;23049;54.304;8.826;2023-07-13T15:35:25;20.50;99.90
32769;DHT22;23049;54.304;8.826;2023-07-13T15:37:51;20.40;99.90
32769;DHT22;23049;54.304;8.826;2023-07-13T15:40:16;20.40;99.90
32769;DHT22;23049;54.304;8.826;2023-07-13T15:42:42;20.30;99.90
32769;DHT22;23049;54.304;8.826;2023-07-13T15:45:18;20.10;99.90
32769;DHT22;23049;54.304;8.826;2023-07-13T15:50:29;19.70;99.90
32769;DHT22;23049;54.304;8.826;2023-07-13T15:53:01;19.80;99.90
32769;DHT22;23049;54.304;8.826;2023-07-13T15:55:28;20.00;99.90
32769;DHT22;23049;54.304;8.826;2023-07-13T15:57:53;20.20;99.90
32769;DHT22;23049;54.304;8.826;2023-07-13T16:00:23;20.30;99.90
32769;DHT22;23049;54.304;8.826;2023-07-13T16:02:49;20.40;99.90
32769;DHT22;23049;54.304;8.826;2023-07-13T16:05:15;20.50;99.90
32769;DHT22;23049;54.304;8.826;2023-07-13T16:07:44;20.40;99.90
32769;DHT22;23049;54.304;8.826;2023-07-13T16:10:15;20.30;99.90
32769;DHT22;23049;54.304;8.826;2023-07-13T16:12:41;20.20;99.90
32769;DHT22;23049;54.304;8.826;2023-07-13T16:15:13;20.20;99.90
32769;DHT22;23049;54.304;8.826;2023-07-13T16:17:39;20.10;99.90
32769;DHT22;23049;54.304;8.826;2023-07-13T16:20:06;20.10;99.90
32769;DHT22;23049;54.304;8.826;2023-07-13T16:24:46;20.00;99.90
32769;DHT22;23049;54.304;8.826;2023-07-13T16:27:12;19.80;99.90
32769;DHT22;23049;54.304;8.826;2023-07-13T16:29:38;19.60;99.90
32769;DHT22;23049;54.304;8.826;2023-07-13T16:34:30;19.50;99.90
32769;DHT22;23049;54.304;8.826;2023-07-13T16:36:55;19.40;99.90
32769;DHT22;23049;54.304;8.826;2023-07-13T16:39:21;19.40;99.90
32769;DHT22;23049;54.304;8.826;2023-07-13T16:44:15;19.70;99.90
32769;DHT22;23049;54.304;8.826;2023-07-13T16:46:42;19.60;99.90
32769;DHT22;23049;54.304;8.826;2023-07-13T16:49:27;19.60;99.90
32769;DHT22;23049;54.304;8.826;2023-07-13T16:51:54;19.70;99.90
32769;DHT22;23049;54.304;8.826;2023-07-13T16:54:21;19.80;99.90
32769;DHT22;23049;54.304;8.826;2023-07-13T16:56:47;19.90;99.90
32769;DHT22;23049;54.304;8.826;2023-07-13T16:59:18;19.90;99.90
32769;DHT22;23049;54.304;8.826;2023-07-13T17:01:44;19.80;99.90